Time;durP1;ratioP1;P1;durP2;ratioP2;P2;SDS_P1;SDS_P2;PMS_P1;PMS_P2;Temp;Humidity;BMP_temperature;BMP_pressure;BME280_temperature;BME280_humidity;BME280_pressure;Samples;Min_cycle;Max_cycle;Signal;HPM_P1;HPM_P2
2022/04/04 00:01:42;;;;;;;7.70;5.83;;;;;;;;;;5114889;28;20028;-57
2022/04/04 00:04:20;;;;;;;10.20;7.43;;;;;;;;;;5115853;28;20022;-57
2022/04/04 00:06:46;;;;;;;8.10;7.07;;;;;;;;;;5112089;28;20354;-57
2022/04/04 00:09:35;;;;;;;8.23;6.50;;;;;;;;;;5115430;28;20032;-57
2022/04/04 00:12:39;;;;;;;6.03;5.23;;;;;;;;;;5000169;28;20037;-56
2022/04/04 00:15:23;;;;;;;7.27;5.90;;;;;;;;;;5113819;28;20120;-57
2022/04/04 00:17:55;;;;;;;8.27;6.33;;;;;;;;;;5115025;28;20012;-57
2022/04/04 00:20:25;;;;;;;11.00;7.87;;;;;;;;;;5091606;28;20374;-57
2022/04/04 00:23:00;;;;;;;7.15;6.38;;;;;;;;;;5110753;28;20040;-54
2022/04/04 00:25:45;;;;;;;7.67;6.90;;;;;;;;;;5115656;28;20024;-57
2022/04/04 00:28:21;;;;;;;7.67;6.37;;;;;;;;;;5114993;28;20079;-57
2022/04/04 00:30:48;;;;;;;8.07;6.90;;;;;;;;;;5114723;28;20031;-57
2022/04/04 00:33:31;;;;;;;6.37;5.73;;;;;;;;;;5114551;27;20045;-57
2022/04/04 00:36:03;;;;;;;8.10;6.30;;;;;;;;;;5114590;28;20102;-58
2022/04/04 00:38:35;;;;;;;6.43;5.67;;;;;;;;;;5109671;28;20142;-57
2022/04/04 00:41:05;;;;;;;7.83;5.43;;;;;;;;;;5113972;28;20050;-56
2022/04/04 00:43:53;;;;;;;7.70;6.32;;;;;;;;;;5110869;28;20461;-57
2022/04/04 00:46:25;;;;;;;7.33;5.93;;;;;;;;;;5115275;28;20031;-56
2022/04/04 00:49:16;;;;;;;6.00;4.87;;;;;;;;;;5113922;28;20475;-57
2022/04/04 00:51:46;;;;;;;8.67;6.80;;;;;;;;;;5113773;28;20110;-55
2022/04/04 00:54:38;;;;;;;5.97;5.38;;;;;;;;;;5114277;28;20622;-57
2022/04/04 01:00:16;;;;;;;8.93;4.85;;;;;;;;;;5114288;28;20085;-57
2022/04/04 01:06:19;;;;;;;7.53;5.50;;;;;;;;;;5114285;28;20114;-57
2022/04/04 01:15:11;;;;;;;7.10;6.20;;;;;;;;;;5090905;28;20118;-57
2022/04/04 01:17:48;;;;;;;8.63;6.27;;;;;;;;;;5114632;28;20040;-57
2022/04/04 01:20:20;;;;;;;6.47;5.53;;;;;;;;;;5118977;28;20039;-58
2022/04/04 01:26:09;;;;;;;7.63;5.07;;;;;;;;;;5113135;28;20034;-57
2022/04/04 01:28:50;;;;;;;6.87;5.20;;;;;;;;;;5119483;28;20062;-57
2022/04/04 01:34:15;;;;;;;7.97;6.07;;;;;;;;;;5118614;28;20031;-57
2022/04/04 01:36:41;;;;;;;9.30;6.20;;;;;;;;;;5118109;28;20039;-56
2022/04/04 01:39:44;;;;;;;7.37;5.77;;;;;;;;;;5117745;28;20055;-57
2022/04/04 01:42:19;;;;;;;8.83;5.27;;;;;;;;;;5117561;28;20463;-55
2022/04/04 01:44:55;;;;;;;8.50;4.80;;;;;;;;;;5118291;28;20035;-57
2022/04/04 01:47:41;;;;;;;7.50;5.00;;;;;;;;;;5118438;28;20046;-57
2022/04/04 01:50:10;;;;;;;6.03;5.40;;;;;;;;;;5110740;27;20039;-57
2022/04/04 01:55:54;;;;;;;6.77;5.60;;;;;;;;;;5117900;28;20043;-57
2022/04/04 01:58:45;;;;;;;7.43;6.70;;;;;;;;;;5118285;28;20122;-55
2022/04/04 02:01:13;;;;;;;14.23;4.43;;;;;;;;;;5116441;28;20111;-57
2022/04/04 02:09:45;;;;;;;;;;;;;;;;;;;;;
2022/04/04 02:12:33;;;;;;;;;;;;;;;;;;;;;
2022/04/04 02:15:15;;;;;;;6.03;4.80;;;;;;;;;;5118207;28;20036;-57
2022/04/04 02:17:52;;;;;;;7.07;6.37;;;;;;;;;;5117192;28;20028;-57
2022/04/04 02:20:24;;;;;;;6.00;5.40;;;;;;;;;;5117242;28;20354;-57
2022/04/04 02:23:06;;;;;;;6.30;5.43;;;;;;;;;;5116203;28;20349;-57
2022/04/04 02:25:44;;;;;;;7.40;5.43;;;;;;;;;;5117759;28;20019;-56
2022/04/04 02:31:04;;;;;;;7.67;5.70;;;;;;;;;;5117300;28;20037;-56
2022/04/04 02:33:48;;;;;;;6.40;5.73;;;;;;;;;;5118172;28;20020;-57
2022/04/04 02:36:45;;;;;;;6.87;6.20;;;;;;;;;;5117359;28;20053;-57
2022/04/04 02:42:33;;;;;;;6.97;6.03;;;;;;;;;;5117209;28;20153;-57
2022/04/04 02:45:20;;;;;;;9.33;6.07;;;;;;;;;;5117619;28;20085;-57
2022/04/04 02:47:50;;;;;;;6.47;5.77;;;;;;;;;;5117952;28;20083;-55
2022/04/04 02:50:35;;;;;;;8.18;6.70;;;;;;;;;;5116950;28;20028;-55
2022/04/04 02:53:17;;;;;;;7.07;6.43;;;;;;;;;;5115815;28;20031;-57
2022/04/04 02:59:16;;;;;;;5.63;4.87;;;;;;;;;;5117231;28;20169;-58
2022/04/04 03:02:06;;;;;;;7.03;6.20;;;;;;;;;;5116918;28;20051;-57
2022/04/04 03:04:40;;;;;;;;;;;;;;;;;;5117146;28;20034;-57
2022/04/04 03:07:21;;;;;;;7.37;5.53;;;;;;;;;;5117304;28;19904;-57
2022/04/04 03:10:05;;;;;;;7.57;6.67;;;;;;;;;;5117659;28;20039;-56
2022/04/04 03:12:53;;;;;;;6.87;6.27;;;;;;;;;;5117050;28;20103;-57
2022/04/04 03:15:51;;;;;;;6.70;6.00;;;;;;;;;;5112070;28;20036;-56
2022/04/04 03:18:23;;;;;;;7.43;6.53;;;;;;;;;;5087733;28;20067;-57
2022/04/04 03:24:15;;;;;;;7.17;6.53;;;;;;;;;;5116568;28;20110;-56
2022/04/04 03:27:07;;;;;;;5.70;4.70;;;;;;;;;;5116546;28;20033;-57
2022/04/04 03:29:44;;;;;;;7.17;6.30;;;;;;;;;;5117076;28;20023;-57
2022/04/04 03:35:30;;;;;;;9.37;6.20;;;;;;;;;;5116136;28;20039;-56
2022/04/04 03:41:11;;;;;;;8.57;7.57;;;;;;;;;;5112736;28;20050;-56
2022/04/04 03:44:01;;;;;;;11.00;7.93;;;;;;;;;;5115528;28;20095;-57
2022/04/04 03:46:50;;;;;;;;;;;;;;;;;;;;;
2022/04/04 03:49:25;;;;;;;9.67;8.67;;;;;;;;;;5115227;28;20043;-57
2022/04/04 03:52:04;;;;;;;;;;;;;;;;;;;;;
2022/04/04 03:57:57;;;;;;;8.83;7.93;;;;;;;;;;5098662;28;20054;-56
2022/04/04 04:00:24;;;;;;;8.97;6.63;;;;;;;;;;5114607;28;20031;-55
2022/04/04 04:03:12;;;;;;;9.60;8.37;;;;;;;;;;5112733;28;20081;-57
2022/04/04 04:06:11;;;;;;;10.13;7.43;;;;;;;;;;5114147;28;20105;-57
2022/04/04 04:11:59;;;;;;;9.40;8.20;;;;;;;;;;5114134;28;20047;-56
2022/04/04 04:14:34;;;;;;;7.93;7.10;;;;;;;;;;5113779;28;20416;-61
2022/04/04 04:17:06;;;;;;;9.03;7.20;;;;;;;;;;5108766;28;20042;-56
2022/04/04 04:22:33;;;;;;;9.87;8.93;;;;;;;;;;5114759;28;20112;-57
2022/04/04 04:25:18;;;;;;;10.50;7.93;;;;;;;;;;5113050;28;20036;-56
2022/04/04 04:27:50;;;;;;;8.73;7.83;;;;;;;;;;5114045;28;20092;-57
2022/04/04 04:30:22;;;;;;;7.27;6.53;;;;;;;;;;5111993;28;20035;-55
2022/04/04 04:32:53;;;;;;;10.97;8.30;;;;;;;;;;5112733;28;20108;-57
2022/04/04 04:38:16;;;;;;;10.03;8.67;;;;;;;;;;5114207;28;20307;-57
2022/04/04 04:44:02;;;;;;;;;;;;;;;;;;;;;
2022/04/04 04:46:37;;;;;;;11.83;7.83;;;;;;;;;;5114587;28;20107;-56
2022/04/04 04:52:08;;;;;;;6.07;5.47;;;;;;;;;;5109296;28;20039;-57
2022/04/04 04:55:03;;;;;;;7.60;6.77;;;;;;;;;;5115424;28;20457;-57
2022/04/04 04:57:44;;;;;;;7.27;5.50;;;;;;;;;;5107871;28;20036;-56
2022/04/04 05:00:23;;;;;;;6.97;5.87;;;;;;;;;;5114397;28;20097;-56
2022/04/04 05:05:41;;;;;;;7.83;7.03;;;;;;;;;;5114690;28;20569;-54
2022/04/04 05:08:23;;;;;;;12.47;6.33;;;;;;;;;;5114229;28;20034;-57
2022/04/04 05:11:01;;;;;;;8.17;7.37;;;;;;;;;;5112853;28;20028;-57
2022/04/04 05:13:31;;;;;;;9.13;8.23;;;;;;;;;;5112654;28;20125;-57
2022/04/04 05:19:03;;;;;;;10.43;8.20;;;;;;;;;;5106182;28;20042;-57
2022/04/04 05:21:53;;;;;;;7.43;6.38;;;;;;;;;;5113185;28;20040;-57
2022/04/04 05:24:55;;;;;;;;;;;;;;;;;;;;;
2022/04/04 05:27:33;;;;;;;9.97;7.10;;;;;;;;;;5084453;28;20036;-57
2022/04/04 05:30:03;;;;;;;6.63;6.00;;;;;;;;;;5114819;28;20365;-57
2022/04/04 05:32:57;;;;;;;8.83;7.90;;;;;;;;;;5114679;28;20027;-57
2022/04/04 05:35:52;;;;;;;9.03;5.93;;;;;;;;;;5104418;28;20036;-57
2022/04/04 05:38:25;;;;;;;8.60;7.80;;;;;;;;;;5112154;28;20853;-57
2022/04/04 05:41:27;;;;;;;7.37;6.67;;;;;;;;;;5107447;28;20082;-57
2022/04/04 05:44:20;;;;;;;6.37;5.77;;;;;;;;;;5014187;28;20527;-58
2022/04/04 05:47:11;;;;;;;;;;;;;;;;;;;;;
2022/04/04 05:49:45;;;;;;;10.77;9.57;;;;;;;;;;5113505;28;20027;-58
2022/04/04 05:52:47;;;;;;;9.67;6.70;;;;;;;;;;5112079;28;20073;-58
2022/04/04 05:55:28;;;;;;;9.73;8.13;;;;;;;;;;5113373;28;20082;-58
2022/04/04 05:58:39;;;;;;;;;;;;;;;;;;;;;
2022/04/04 06:01:26;;;;;;;10.33;8.77;;;;;;;;;;5113223;28;20028;-58
2022/04/04 06:04:31;;;;;;;8.87;7.97;;;;;;;;;;5113158;28;20032;-59
2022/04/04 06:07:07;;;;;;;9.80;8.85;;;;;;;;;;5117823;28;20460;-58
2022/04/04 06:12:26;;;;;;;9.70;7.88;;;;;;;;;;5117304;28;20081;-58
2022/04/04 06:15:04;;;;;;;11.10;8.07;;;;;;;;;;5117177;28;20490;-58
2022/04/04 06:17:49;;;;;;;7.35;6.50;;;;;;;;;;5099270;28;20027;-58
2022/04/04 06:20:42;;;;;;;6.90;6.28;;;;;;;;;;5113881;28;20127;-58
2022/04/04 06:23:11;;;;;;;8.98;6.88;;;;;;;;;;5109694;28;20448;-58
2022/04/04 06:25:56;;;;;;;7.75;5.95;;;;;;;;;;5114857;28;20493;-58
2022/04/04 06:28:41;;;;;;;6.32;5.45;;;;;;;;;;5117566;28;20452;-58
2022/04/04 06:31:26;;;;;;;8.50;7.22;;;;;;;;;;5115612;28;20477;-59
2022/04/04 06:34:08;;;;;;;7.60;6.50;;;;;;;;;;5115206;28;20377;-59
2022/04/04 06:36:42;;;;;;;8.52;5.82;;;;;;;;;;5116034;28;20035;-58
2022/04/04 06:39:08;;;;;;;11.52;7.13;;;;;;;;;;5116407;28;20119;-59
2022/04/04 06:42:04;;;;;;;8.95;6.75;;;;;;;;;;5116631;28;20055;-58
2022/04/04 06:44:30;;;;;;;10.93;5.82;;;;;;;;;;5114339;28;20518;-58
2022/04/04 06:47:01;;;;;;;8.67;5.70;;;;;;;;;;5117070;28;20031;-59
2022/04/04 06:49:46;;;;;;;7.77;6.30;;;;;;;;;;5116417;28;20024;-58
2022/04/04 06:52:27;;;;;;;7.47;5.93;;;;;;;;;;5116119;28;20068;-59
2022/04/04 06:55:35;;;;;;;7.90;6.30;;;;;;;;;;5114248;28;20169;-59
2022/04/04 06:58:02;;;;;;;9.60;7.20;;;;;;;;;;5117014;28;20359;-58
2022/04/04 07:01:11;;;;;;;9.10;6.43;;;;;;;;;;5116943;28;20028;-57
2022/04/04 07:03:45;;;;;;;7.60;6.07;;;;;;;;;;5033174;28;20094;-58
2022/04/04 07:06:20;;;;;;;5.17;4.77;;;;;;;;;;5108887;27;20389;-56
2022/04/04 07:09:08;;;;;;;11.20;7.40;;;;;;;;;;5114822;28;20027;-58
2022/04/04 07:11:44;;;;;;;6.93;4.87;;;;;;;;;;5113889;28;20024;-58
2022/04/04 07:14:27;;;;;;;7.57;5.97;;;;;;;;;;5116841;28;20559;-59
2022/04/04 07:17:05;;;;;;;10.00;6.43;;;;;;;;;;5116592;28;20469;-58
2022/04/04 07:22:51;;;;;;;8.90;6.37;;;;;;;;;;5072847;28;20029;-56
2022/04/04 07:28:56;;;;;;;6.17;5.40;;;;;;;;;;5069861;28;20052;-57
2022/04/04 07:31:43;;;;;;;;;;;;;;;;;;;;;
2022/04/04 07:34:18;;;;;;;12.13;6.43;;;;;;;;;;5101498;28;20130;-57
2022/04/04 07:36:53;;;;;;;6.73;5.53;;;;;;;;;;5116446;28;20028;-57
2022/04/04 07:39:48;;;;;;;6.43;4.90;;;;;;;;;;5111488;28;20059;-58
2022/04/04 07:45:30;;;;;;;;;;;;;;;;;;;;;
2022/04/04 07:47:59;;;;;;;7.23;5.73;;;;;;;;;;5114789;28;20115;-58
2022/04/04 07:50:45;;;;;;;6.00;5.40;;;;;;;;;;5115093;28;20026;-57
2022/04/04 07:53:33;;;;;;;8.60;5.80;;;;;;;;;;5113931;28;20028;-57
2022/04/04 07:56:15;;;;;;;6.07;4.87;;;;;;;;;;5103547;28;20127;-58
2022/04/04 07:58:54;;;;;;;5.27;4.47;;;;;;;;;;5115200;28;20511;-58
2022/04/04 08:01:21;;;;;;;5.47;4.30;;;;;;;;;;5114670;28;20381;-57
2022/04/04 08:03:56;;;;;;;7.37;5.67;;;;;;;;;;5112549;28;20031;-58
2022/04/04 08:06:26;;;;;;;7.00;4.77;;;;;;;;;;5113121;28;20485;-57
2022/04/04 08:09:33;;;;;;;;;;;;;;;;;;;;;
2022/04/04 08:12:00;;;;;;;5.97;4.53;;;;;;;;;;5114463;28;20023;-57
2022/04/04 08:14:39;;;;;;;6.93;4.90;;;;;;;;;;5114895;28;20030;-57
2022/04/04 08:17:28;;;;;;;7.97;5.07;;;;;;;;;;5114840;28;20027;-58
2022/04/04 08:20:07;;;;;;;6.03;4.70;;;;;;;;;;5114924;28;20027;-58
2022/04/04 08:22:38;;;;;;;6.25;4.93;;;;;;;;;;5115343;28;20023;-57
2022/04/04 08:25:16;;;;;;;;;;;;;;;;;;5114369;28;20395;-57
2022/04/04 08:27:54;;;;;;;4.38;3.67;;;;;;;;;;5113555;28;20006;-57
2022/04/04 08:30:36;;;;;;;;;;;;;;;;;;;;;
2022/04/04 08:33:06;;;;;;;5.87;4.97;;;;;;;;;;5113889;28;20038;-58
2022/04/04 08:35:38;;;;;;;4.63;3.90;;;;;;;;;;5114693;28;20043;-58
2022/04/04 08:38:24;;;;;;;5.43;4.20;;;;;;;;;;5110816;28;20115;-58
2022/04/04 08:44:02;;;;;;;6.80;4.88;;;;;;;;;;5111855;28;20059;-57
2022/04/04 08:46:40;;;;;;;12.50;5.43;;;;;;;;;;5114848;28;20027;-58
2022/04/04 08:49:40;;;;;;;9.57;4.35;;;;;;;;;;5114782;28;20372;-59
2022/04/04 08:52:10;;;;;;;6.63;4.40;;;;;;;;;;5113850;28;20126;-57
2022/04/04 08:54:48;;;;;;;4.28;3.80;;;;;;;;;;5114791;28;20369;-58
2022/04/04 08:57:38;;;;;;;5.45;4.28;;;;;;;;;;5113812;28;20022;-57
2022/04/04 09:00:13;;;;;;;6.47;5.10;;;;;;;;;;5113965;28;20028;-58
2022/04/04 09:03:05;;;;;;;;;;;;;;;;;;;;;
2022/04/04 09:05:53;;;;;;;7.03;6.03;;;;;;;;;;5113304;28;20016;-58
2022/04/04 09:08:28;;;;;;;8.45;5.57;;;;;;;;;;5112353;28;20055;-58
2022/04/04 09:11:03;;;;;;;5.45;4.93;;;;;;;;;;5114136;28;20026;-58
2022/04/04 09:13:38;;;;;;;6.25;4.75;;;;;;;;;;5114267;28;20031;-58
2022/04/04 09:16:19;;;;;;;6.32;5.07;;;;;;;;;;5094517;28;20389;-57
2022/04/04 09:19:03;;;;;;;;;;;;;;;;;;5113902;28;20040;-58
2022/04/04 09:21:49;;;;;;;6.22;4.65;;;;;;;;;;5110381;28;20314;-57
2022/04/04 09:24:15;;;;;;;6.55;5.63;;;;;;;;;;5114203;28;20479;-58
2022/04/04 09:27:00;;;;;;;5.43;4.43;;;;;;;;;;5113422;28;20416;-58
2022/04/04 09:29:50;;;;;;;5.25;4.05;;;;;;;;;;5113896;28;20046;-58
2022/04/04 09:32:24;;;;;;;5.25;4.18;;;;;;;;;;5113039;28;20039;-57
2022/04/04 09:34:50;;;;;;;5.88;4.68;;;;;;;;;;5113691;28;20019;-57
2022/04/04 09:37:25;;;;;;;6.57;5.95;;;;;;;;;;5113758;28;20023;-56
2022/04/04 09:40:12;;;;;;;6.90;5.35;;;;;;;;;;5116397;28;20127;-51
2022/04/04 09:42:46;;;;;;;7.22;4.95;;;;;;;;;;5110375;28;20054;-56
2022/04/04 09:45:46;;;;;;;5.82;4.38;;;;;;;;;;5116909;28;20030;-54
2022/04/04 09:48:16;;;;;;;5.93;4.72;;;;;;;;;;5107799;28;20036;-55
2022/04/04 09:50:56;;;;;;;8.57;5.20;;;;;;;;;;5117161;28;20034;-55
2022/04/04 09:53:28;;;;;;;5.28;4.45;;;;;;;;;;5113439;28;20418;-56
2022/04/04 09:56:20;;;;;;;4.75;3.92;;;;;;;;;;5117468;28;20051;-54
2022/04/04 09:58:52;;;;;;;7.82;5.03;;;;;;;;;;5116041;28;20043;-54
2022/04/04 10:01:21;;;;;;;6.15;4.32;;;;;;;;;;5117243;28;20103;-56
2022/04/04 10:03:47;;;;;;;5.45;3.92;;;;;;;;;;5117175;28;20461;-55
2022/04/04 10:06:36;;;;;;;6.18;4.63;;;;;;;;;;5117180;28;20108;-56
2022/04/04 10:12:18;;;;;;;8.25;5.43;;;;;;;;;;5107236;28;20031;-56
2022/04/04 10:15:08;;;;;;;4.85;4.13;;;;;;;;;;5115417;28;20032;-56
2022/04/04 10:17:43;;;;;;;5.72;4.60;;;;;;;;;;5101170;28;20032;-55
2022/04/04 10:20:12;;;;;;;5.50;5.00;;;;;;;;;;5116968;28;20035;-56
2022/04/04 10:22:54;;;;;;;6.28;5.22;;;;;;;;;;5081257;28;20080;-53
2022/04/04 10:25:25;;;;;;;6.07;4.38;;;;;;;;;;5116983;28;20023;-55
2022/04/04 10:27:52;;;;;;;;;;;;;;;;;;5115321;28;20024;-55
2022/04/04 10:30:21;;;;;;;5.10;4.22;;;;;;;;;;5115967;28;19903;-56
2022/04/04 10:35:41;;;;;;;6.25;5.45;;;;;;;;;;5105602;28;20051;-56
2022/04/04 10:38:10;;;;;;;6.05;5.00;;;;;;;;;;5116224;28;20369;-56
2022/04/04 10:40:40;;;;;;;5.55;4.68;;;;;;;;;;5114975;28;20038;-54
2022/04/04 10:43:27;;;;;;;4.63;4.20;;;;;;;;;;5115087;28;20058;-56
2022/04/04 10:45:57;;;;;;;7.25;5.85;;;;;;;;;;5116192;28;20016;-56
2022/04/04 10:48:45;;;;;;;8.35;5.85;;;;;;;;;;5110284;28;20038;-55
2022/04/04 10:51:35;;;;;;;8.35;5.88;;;;;;;;;;5113241;28;20031;-56
2022/04/04 10:54:16;;;;;;;6.60;4.72;;;;;;;;;;5115564;28;20031;-56
2022/04/04 10:56:47;;;;;;;6.22;5.45;;;;;;;;;;5115489;28;20373;-54
2022/04/04 10:59:21;;;;;;;5.50;4.75;;;;;;;;;;5116797;28;20130;-56
2022/04/04 11:02:01;;;;;;;6.45;5.72;;;;;;;;;;5114301;28;20031;-54
2022/04/04 11:07:44;;;;;;;9.35;4.22;;;;;;;;;;5115126;28;20119;-56
2022/04/04 11:10:23;;;;;;;8.00;4.88;;;;;;;;;;5115707;28;20411;-55
2022/04/04 11:15:56;;;;;;;6.18;4.47;;;;;;;;;;5115562;28;20028;-55
2022/04/04 11:18:50;;;;;;;7.70;4.90;;;;;;;;;;5114799;28;20061;-56
2022/04/04 11:21:41;;;;;;;5.63;4.95;;;;;;;;;;5115567;28;20031;-53
2022/04/04 11:24:23;;;;;;;4.93;4.35;;;;;;;;;;5115020;28;20027;-56
2022/04/04 11:26:58;;;;;;;4.55;3.78;;;;;;;;;;5115722;28;20055;-54
2022/04/04 11:29:43;;;;;;;5.60;4.68;;;;;;;;;;5098142;28;20031;-55
2022/04/04 11:32:22;;;;;;;5.88;3.22;;;;;;;;;;5115314;28;20024;-54
2022/04/04 11:34:55;;;;;;;4.68;4.13;;;;;;;;;;5114491;28;20023;-54
2022/04/04 11:37:27;;;;;;;5.30;4.60;;;;;;;;;;5113975;28;20040;-56
2022/04/04 11:40:03;;;;;;;5.20;4.70;;;;;;;;;;5114218;28;20044;-54
2022/04/04 11:42:57;;;;;;;4.85;4.18;;;;;;;;;;5113716;28;20506;-55
2022/04/04 11:45:37;;;;;;;6.28;5.00;;;;;;;;;;5078429;28;20028;-56
2022/04/04 11:48:26;;;;;;;5.57;4.35;;;;;;;;;;5115572;28;20093;-56
2022/04/04 11:51:12;;;;;;;5.85;4.47;;;;;;;;;;5114756;28;20110;-54
2022/04/04 11:53:41;;;;;;;6.00;4.47;;;;;;;;;;5114872;28;20115;-54
2022/04/04 11:56:23;;;;;;;;;;;;;;;;;;;;;
2022/04/04 11:58:54;;;;;;;9.35;4.93;;;;;;;;;;5114905;28;20391;-53
2022/04/04 12:01:27;;;;;;;5.45;4.40;;;;;;;;;;5096361;28;20034;-56
2022/04/04 12:04:05;;;;;;;5.45;4.32;;;;;;;;;;5113888;28;20073;-56
2022/04/04 12:06:40;;;;;;;5.00;4.35;;;;;;;;;;5114976;28;20457;-53
2022/04/04 12:09:13;;;;;;;4.93;4.43;;;;;;;;;;5113272;28;20027;-55
2022/04/04 12:11:42;;;;;;;5.90;4.22;;;;;;;;;;5096742;28;20020;-55
2022/04/04 12:14:12;;;;;;;6.18;4.13;;;;;;;;;;5115108;28;20479;-56
2022/04/04 12:16:48;;;;;;;4.97;4.32;;;;;;;;;;5113248;28;20024;-55
2022/04/04 12:19:21;;;;;;;4.20;3.80;;;;;;;;;;5114931;28;20028;-57
2022/04/04 12:21:50;;;;;;;4.60;3.75;;;;;;;;;;5114573;28;20027;-55
2022/04/04 12:27:24;;;;;;;5.43;4.50;;;;;;;;;;5114630;28;20031;-53
2022/04/04 12:30:02;;;;;;;5.10;4.28;;;;;;;;;;5114854;28;20028;-52
2022/04/04 12:35:38;;;;;;;5.40;4.50;;;;;;;;;;5114275;28;20023;-56
2022/04/04 12:38:13;;;;;;;6.20;4.65;;;;;;;;;;5113911;28;20123;-55
2022/04/04 12:40:57;;;;;;;4.97;4.40;;;;;;;;;;5113544;28;20082;-54
2022/04/04 12:43:32;;;;;;;5.05;3.95;;;;;;;;;;5112987;28;20043;-55
2022/04/04 12:46:07;;;;;;;6.75;4.97;;;;;;;;;;5114919;28;20016;-53
2022/04/04 12:48:37;;;;;;;5.55;4.65;;;;;;;;;;5114273;28;20480;-53
2022/04/04 12:54:06;;;;;;;7.95;5.03;;;;;;;;;;5094750;28;20056;-53
2022/04/04 12:56:59;;;;;;;5.13;4.63;;;;;;;;;;5110987;28;20070;-51
2022/04/04 12:59:25;;;;;;;8.40;5.93;;;;;;;;;;5111247;28;20071;-53
2022/04/04 13:02:09;;;;;;;5.70;5.05;;;;;;;;;;5113725;28;20114;-54
2022/04/04 13:04:39;;;;;;;5.97;4.85;;;;;;;;;;5114584;28;20038;-53
2022/04/04 13:07:17;;;;;;;5.93;4.95;;;;;;;;;;5113634;28;20031;-53
2022/04/04 13:09:54;;;;;;;5.68;5.15;;;;;;;;;;5113681;28;20051;-53
2022/04/04 13:12:30;;;;;;;5.63;4.75;;;;;;;;;;5113911;28;20421;-54
2022/04/04 13:15:00;;;;;;;6.60;5.80;;;;;;;;;;5116596;28;20027;-55
2022/04/04 13:17:39;;;;;;;11.23;7.03;;;;;;;;;;5117736;28;20526;-52
2022/04/04 13:20:21;;;;;;;7.18;6.03;;;;;;;;;;5118478;28;20027;-56
2022/04/04 13:22:49;;;;;;;6.18;4.85;;;;;;;;;;5117208;28;20028;-56
2022/04/04 13:25:21;;;;;;;8.20;5.43;;;;;;;;;;5118197;28;20027;-51
2022/04/04 13:27:50;;;;;;;5.05;4.55;;;;;;;;;;5116152;28;20063;-51
2022/04/04 13:30:16;;;;;;;9.68;5.30;;;;;;;;;;5116317;28;20043;-55
2022/04/04 13:32:45;;;;;;;7.82;5.75;;;;;;;;;;5117623;28;20023;-54
2022/04/04 13:35:14;;;;;;;6.40;5.35;;;;;;;;;;5114999;28;20039;-56
2022/04/04 13:37:52;;;;;;;5.82;4.50;;;;;;;;;;5117683;28;20023;-56
2022/04/04 13:40:23;;;;;;;7.80;5.30;;;;;;;;;;5118529;28;20039;-56
2022/04/04 13:42:52;;;;;;;5.65;5.07;;;;;;;;;;5117117;28;20074;-54
2022/04/04 13:45:23;;;;;;;8.95;5.25;;;;;;;;;;5116981;28;20024;-55
2022/04/04 13:47:58;;;;;;;10.07;5.32;;;;;;;;;;5117729;28;20398;-56
2022/04/04 13:50:34;;;;;;;6.82;5.13;;;;;;;;;;5116120;28;20080;-55
2022/04/04 13:53:03;;;;;;;4.63;4.15;;;;;;;;;;5117161;28;20035;-56
2022/04/04 13:55:34;;;;;;;8.60;6.30;;;;;;;;;;5115838;28;20056;-55
2022/04/04 13:58:04;;;;;;;6.45;5.10;;;;;;;;;;5116386;28;20031;-54
2022/04/04 14:00:35;;;;;;;5.70;4.45;;;;;;;;;;5115762;28;20138;-55
2022/04/04 14:03:04;;;;;;;7.45;5.03;;;;;;;;;;5117103;28;20051;-53
2022/04/04 14:05:55;;;;;;;5.57;4.65;;;;;;;;;;5115671;28;20108;-55
2022/04/04 14:08:22;;;;;;;6.07;4.78;;;;;;;;;;5116972;28;20425;-53
2022/04/04 14:10:55;;;;;;;8.90;6.07;;;;;;;;;;5116235;28;20098;-55
2022/04/04 14:13:27;;;;;;;7.10;5.10;;;;;;;;;;5117358;28;20020;-54
2022/04/04 14:15:56;;;;;;;5.85;4.85;;;;;;;;;;5116580;28;20077;-54
2022/04/04 14:18:30;;;;;;;5.82;4.53;;;;;;;;;;5116861;28;20027;-55
2022/04/04 14:21:12;;;;;;;6.00;4.95;;;;;;;;;;5115579;28;20138;-51
2022/04/04 14:23:47;;;;;;;5.68;4.47;;;;;;;;;;5116503;28;20024;-51
2022/04/04 14:26:17;;;;;;;5.68;4.65;;;;;;;;;;5116248;28;20028;-55
2022/04/04 14:28:57;;;;;;;5.75;5.03;;;;;;;;;;5115093;28;20093;-55
2022/04/04 14:31:29;;;;;;;5.88;4.72;;;;;;;;;;5116420;28;20016;-54
2022/04/04 14:33:59;;;;;;;7.22;4.53;;;;;;;;;;5115251;28;20023;-53
2022/04/04 14:36:29;;;;;;;9.05;6.25;;;;;;;;;;5114854;28;20043;-56
2022/04/04 14:39:00;;;;;;;6.55;4.72;;;;;;;;;;5114796;28;20036;-54
2022/04/04 14:41:36;;;;;;;7.28;5.28;;;;;;;;;;5114682;28;20372;-55
2022/04/04 14:44:06;;;;;;;6.78;5.28;;;;;;;;;;5115711;28;20518;-56
2022/04/04 14:46:36;;;;;;;5.43;4.60;;;;;;;;;;5116166;28;20031;-54
2022/04/04 14:49:06;;;;;;;8.05;5.82;;;;;;;;;;5115160;28;20377;-54
2022/04/04 14:51:56;;;;;;;7.40;6.07;;;;;;;;;;5098697;28;20377;-56
2022/04/04 14:54:23;;;;;;;7.72;5.68;;;;;;;;;;5116499;28;20024;-56
2022/04/04 14:56:52;;;;;;;7.03;5.75;;;;;;;;;;5115955;28;20059;-56
2022/04/04 14:59:30;;;;;;;7.47;5.10;;;;;;;;;;5097901;28;20093;-56
2022/04/04 15:01:59;;;;;;;6.93;5.47;;;;;;;;;;5098120;28;20020;-55
2022/04/04 15:04:30;;;;;;;6.40;5.15;;;;;;;;;;5116863;28;20109;-57
2022/04/04 15:06:59;;;;;;;6.38;4.50;;;;;;;;;;5114584;28;20381;-56
2022/04/04 15:10:03;;;;;;;6.82;5.82;;;;;;;;;;5116284;28;20031;-55
2022/04/04 15:12:30;;;;;;;6.72;5.38;;;;;;;;;;5110882;28;20023;-54
2022/04/04 15:15:08;;;;;;;6.05;5.05;;;;;;;;;;5113928;28;20353;-54
2022/04/04 15:17:42;;;;;;;6.00;4.78;;;;;;;;;;5114348;28;20016;-55
2022/04/04 15:20:11;;;;;;;5.90;4.93;;;;;;;;;;5115960;28;20084;-56
2022/04/04 15:23:07;;;;;;;5.75;4.38;;;;;;;;;;5114889;28;20354;-53
2022/04/04 15:25:39;;;;;;;4.20;3.75;;;;;;;;;;5115779;28;20019;-56
2022/04/04 15:28:13;;;;;;;7.47;4.93;;;;;;;;;;5115788;28;20102;-52
2022/04/04 15:30:43;;;;;;;8.15;6.00;;;;;;;;;;5113850;28;20031;-53
2022/04/04 15:33:14;;;;;;;5.75;4.47;;;;;;;;;;5097778;28;20481;-54
2022/04/04 15:35:44;;;;;;;5.97;4.30;;;;;;;;;;5113903;28;20027;-54
2022/04/04 15:38:13;;;;;;;6.65;5.25;;;;;;;;;;5110481;28;20028;-55
2022/04/04 15:40:42;;;;;;;6.38;4.45;;;;;;;;;;5115299;28;20152;-52
2022/04/04 15:43:13;;;;;;;7.15;4.82;;;;;;;;;;5114474;28;20044;-53
2022/04/04 15:45:47;;;;;;;5.45;4.60;;;;;;;;;;5115250;28;20365;-54
2022/04/04 15:48:29;;;;;;;;;;;;;;;;;;;;;
2022/04/04 15:50:58;;;;;;;10.77;5.40;;;;;;;;;;5115264;28;20028;-56
2022/04/04 15:53:30;;;;;;;6.32;5.07;;;;;;;;;;5114890;28;20068;-54
2022/04/04 15:55:57;;;;;;;6.40;5.15;;;;;;;;;;5113614;28;20040;-52
2022/04/04 15:58:33;;;;;;;6.85;5.28;;;;;;;;;;5114912;28;20023;-55
2022/04/04 16:01:05;;;;;;;5.90;5.20;;;;;;;;;;5114098;28;20453;-55
2022/04/04 16:03:42;;;;;;;5.68;5.10;;;;;;;;;;5115233;28;20518;-55
2022/04/04 16:06:12;;;;;;;6.68;5.53;;;;;;;;;;5114350;28;20399;-55
2022/04/04 16:09:07;;;;;;;4.68;3.97;;;;;;;;;;5114929;28;20024;-55
2022/04/04 16:11:36;;;;;;;7.43;4.88;;;;;;;;;;5114772;28;20032;-53
2022/04/04 16:14:22;;;;;;;6.18;4.85;;;;;;;;;;5113928;28;20031;-54
2022/04/04 16:17:00;;;;;;;6.45;4.97;;;;;;;;;;5113889;28;20077;-55
2022/04/04 16:19:47;;;;;;;5.22;3.75;;;;;;;;;;5114202;28;20028;-53
2022/04/04 16:22:23;;;;;;;7.75;4.95;;;;;;;;;;5113710;28;20122;-54
2022/04/04 16:24:54;;;;;;;9.40;5.07;;;;;;;;;;5114994;28;20049;-53
2022/04/04 16:27:24;;;;;;;5.38;4.63;;;;;;;;;;5113448;28;20035;-54
2022/04/04 16:30:03;;;;;;;9.77;5.22;;;;;;;;;;5114078;28;20031;-55
2022/04/04 16:32:32;;;;;;;4.75;3.90;;;;;;;;;;5111794;28;20093;-55
2022/04/04 16:34:59;;;;;;;4.55;4.15;;;;;;;;;;5114234;28;20077;-51
2022/04/04 16:37:38;;;;;;;;;;;;;;;;;;;;;
2022/04/04 16:40:11;;;;;;;6.53;4.25;;;;;;;;;;5114727;28;20035;-55
2022/04/04 16:42:46;;;;;;;4.97;3.65;;;;;;;;;;5107265;28;20393;-52
2022/04/04 16:45:17;;;;;;;7.20;4.40;;;;;;;;;;5113157;28;20080;-53
2022/04/04 16:47:54;;;;;;;;;;;;;;;;;;;;;
2022/04/04 16:50:29;;;;;;;5.55;3.65;;;;;;;;;;5110856;28;20042;-55
2022/04/04 16:52:59;;;;;;;6.07;3.47;;;;;;;;;;5113819;28;20106;-55
2022/04/04 16:55:35;;;;;;;5.85;4.95;;;;;;;;;;5112652;28;20035;-55
2022/04/04 16:58:17;;;;;;;;;;;;;;;;;;;;;
2022/04/04 17:00:46;;;;;;;5.63;4.63;;;;;;;;;;5105607;28;20044;-52
2022/04/04 17:03:18;;;;;;;4.72;3.90;;;;;;;;;;5112478;28;20366;-52
2022/04/04 17:08:47;;;;;;;5.70;4.60;;;;;;;;;;5111820;28;20064;-55
2022/04/04 17:11:16;;;;;;;6.97;5.28;;;;;;;;;;5112585;28;20046;-55
2022/04/04 17:13:53;;;;;;;5.18;4.38;;;;;;;;;;5112174;28;20020;-52
2022/04/04 17:16:23;;;;;;;6.55;5.40;;;;;;;;;;5112269;28;20028;-55
2022/04/04 17:19:04;;;;;;;9.50;5.25;;;;;;;;;;5112004;28;20032;-54
2022/04/04 17:21:39;;;;;;;9.18;5.05;;;;;;;;;;5109651;28;20081;-54
2022/04/04 17:24:15;;;;;;;11.20;6.05;;;;;;;;;;5113324;28;20488;-54
2022/04/04 17:26:44;;;;;;;8.13;5.88;;;;;;;;;;5112363;28;20031;-52
2022/04/04 17:29:16;;;;;;;8.60;4.80;;;;;;;;;;5111877;28;20043;-55
2022/04/04 17:31:46;;;;;;;13.45;6.80;;;;;;;;;;5113608;28;20020;-55
2022/04/04 17:34:25;;;;;;;8.20;5.53;;;;;;;;;;5113824;28;20069;-55
2022/04/04 17:37:03;;;;;;;6.53;4.60;;;;;;;;;;5113098;28;20098;-54
2022/04/04 17:39:32;;;;;;;6.15;4.55;;;;;;;;;;5113475;28;20040;-54
2022/04/04 17:42:01;;;;;;;18.05;12.35;;;;;;;;;;5111614;28;20040;-55
2022/04/04 17:44:28;;;;;;;14.90;8.55;;;;;;;;;;5111966;28;20431;-51
2022/04/04 17:47:00;;;;;;;8.55;5.72;;;;;;;;;;5112699;28;20058;-53
2022/04/04 17:49:39;;;;;;;10.25;6.78;;;;;;;;;;5112673;28;20031;-55
2022/04/04 17:52:07;;;;;;;4.95;4.07;;;;;;;;;;5111765;28;20176;-52
2022/04/04 17:54:39;;;;;;;9.05;4.80;;;;;;;;;;5110915;28;20036;-55